sensor_id;sensor_type;location;lat;lon;timestamp;P1;durP1;ratioP1;P2;durP2;ratioP2
51020;SDS011;38907;45.562;8.856;2022-08-01T00:03:02;6.60;;;2.63;;
51020;SDS011;38907;45.562;8.856;2022-08-01T00:08:05;4.07;;;2.28;;
51020;SDS011;38907;45.562;8.856;2022-08-01T00:13:08;5.28;;;2.20;;
51020;SDS011;38907;45.562;8.856;2022-08-01T00:18:12;2.70;;;2.22;;
51020;SDS011;38907;45.562;8.856;2022-08-01T00:23:15;4.75;;;2.22;;
51020;SDS011;38907;45.562;8.856;2022-08-01T00:28:17;4.65;;;2.35;;
51020;SDS011;38907;45.562;8.856;2022-08-01T00:33:21;3.63;;;2.35;;
51020;SDS011;38907;45.562;8.856;2022-08-01T00:38:24;3.20;;;2.10;;
51020;SDS011;38907;45.562;8.856;2022-08-01T00:43:26;3.50;;;2.13;;
51020;SDS011;38907;45.562;8.856;2022-08-01T00:48:30;2.33;;;2.10;;
51020;SDS011;38907;45.562;8.856;2022-08-01T00:53:33;3.38;;;2.38;;
51020;SDS011;38907;45.562;8.856;2022-08-01T00:58:36;2.30;;;2.00;;
51020;SDS011;38907;45.562;8.856;2022-08-01T01:03:40;3.00;;;2.20;;
51020;SDS011;38907;45.562;8.856;2022-08-01T01:08:45;4.32;;;2.20;;
51020;SDS011;38907;45.562;8.856;2022-08-01T01:13:52;2.83;;;2.22;;
51020;SDS011;38907;45.562;8.856;2022-08-01T01:19:03;3.03;;;2.22;;
51020;SDS011;38907;45.562;8.856;2022-08-01T01:24:13;4.88;;;2.28;;
51020;SDS011;38907;45.562;8.856;2022-08-01T01:29:28;2.20;;;2.00;;
51020;SDS011;38907;45.562;8.856;2022-08-01T01:34:35;4.65;;;2.25;;
51020;SDS011;38907;45.562;8.856;2022-08-01T01:39:40;3.28;;;2.40;;
51020;SDS011;38907;45.562;8.856;2022-08-01T01:44:45;5.18;;;2.22;;
51020;SDS011;38907;45.562;8.856;2022-08-01T01:50:05;3.47;;;2.25;;
51020;SDS011;38907;45.562;8.856;2022-08-01T01:55:09;2.67;;;2.47;;
51020;SDS011;38907;45.562;8.856;2022-08-01T02:00:13;3.15;;;2.10;;
51020;SDS011;38907;45.562;8.856;2022-08-01T02:05:18;2.60;;;2.10;;
51020;SDS011;38907;45.562;8.856;2022-08-01T02:10:21;5.30;;;2.42;;
51020;SDS011;38907;45.562;8.856;2022-08-01T02:15:26;2.63;;;2.33;;
51020;SDS011;38907;45.562;8.856;2022-08-01T02:20:32;9.43;;;2.75;;
51020;SDS011;38907;45.562;8.856;2022-08-01T02:25:38;3.00;;;2.40;;
51020;SDS011;38907;45.562;8.856;2022-08-01T02:30:46;3.60;;;2.53;;
51020;SDS011;38907;45.562;8.856;2022-08-01T02:35:52;2.95;;;2.33;;
51020;SDS011;38907;45.562;8.856;2022-08-01T02:40:59;2.85;;;2.28;;
51020;SDS011;38907;45.562;8.856;2022-08-01T02:46:06;5.45;;;2.30;;
51020;SDS011;38907;45.562;8.856;2022-08-01T02:51:14;2.53;;;2.33;;
51020;SDS011;38907;45.562;8.856;2022-08-01T02:56:18;5.03;;;2.50;;
51020;SDS011;38907;45.562;8.856;2022-08-01T03:01:23;3.20;;;2.50;;
51020;SDS011;38907;45.562;8.856;2022-08-01T03:06:27;3.67;;;2.58;;
51020;SDS011;38907;45.562;8.856;2022-08-01T03:11:31;4.03;;;2.22;;
51020;SDS011;38907;45.562;8.856;2022-08-01T03:16:36;3.45;;;2.38;;
51020;SDS011;38907;45.562;8.856;2022-08-01T03:21:43;5.93;;;2.40;;
51020;SDS011;38907;45.562;8.856;2022-08-01T03:26:47;5.75;;;3.25;;
51020;SDS011;38907;45.562;8.856;2022-08-01T03:31:51;4.15;;;2.25;;
51020;SDS011;38907;45.562;8.856;2022-08-01T03:36:59;3.25;;;2.33;;
51020;SDS011;38907;45.562;8.856;2022-08-01T03:42:09;2.78;;;2.20;;
51020;SDS011;38907;45.562;8.856;2022-08-01T03:47:17;2.95;;;2.50;;
51020;SDS011;38907;45.562;8.856;2022-08-01T03:52:22;3.30;;;2.20;;
51020;SDS011;38907;45.562;8.856;2022-08-01T03:57:27;4.15;;;2.22;;
51020;SDS011;38907;45.562;8.856;2022-08-01T04:02:30;5.32;;;2.50;;
51020;SDS011;38907;45.562;8.856;2022-08-01T04:07:34;2.88;;;2.28;;
51020;SDS011;38907;45.562;8.856;2022-08-01T04:12:39;3.53;;;2.30;;
51020;SDS011;38907;45.562;8.856;2022-08-01T04:22:45;3.95;;;2.50;;
51020;SDS011;38907;45.562;8.856;2022-08-01T04:27:48;3.17;;;2.35;;
51020;SDS011;38907;45.562;8.856;2022-08-01T04:32:54;4.78;;;2.63;;
51020;SDS011;38907;45.562;8.856;2022-08-01T04:38:00;4.72;;;2.53;;
51020;SDS011;38907;45.562;8.856;2022-08-01T04:43:04;4.25;;;2.13;;
51020;SDS011;38907;45.562;8.856;2022-08-01T04:48:07;6.85;;;2.50;;
51020;SDS011;38907;45.562;8.856;2022-08-01T04:53:13;4.78;;;2.55;;
51020;SDS011;38907;45.562;8.856;2022-08-01T04:58:17;4.45;;;2.40;;
51020;SDS011;38907;45.562;8.856;2022-08-01T05:08:23;1.90;;;1.67;;
51020;SDS011;38907;45.562;8.856;2022-08-01T05:13:26;4.88;;;2.33;;
51020;SDS011;38907;45.562;8.856;2022-08-01T05:18:29;3.88;;;2.03;;
51020;SDS011;38907;45.562;8.856;2022-08-01T05:23:33;5.75;;;2.10;;
51020;SDS011;38907;45.562;8.856;2022-08-01T05:28:36;3.13;;;1.95;;
51020;SDS011;38907;45.562;8.856;2022-08-01T05:33:38;5.00;;;2.15;;
51020;SDS011;38907;45.562;8.856;2022-08-01T05:38:42;2.38;;;1.85;;
51020;SDS011;38907;45.562;8.856;2022-08-01T05:43:45;7.13;;;2.20;;
51020;SDS011;38907;45.562;8.856;2022-08-01T05:48:48;6.28;;;2.47;;
51020;SDS011;38907;45.562;8.856;2022-08-01T05:53:52;6.00;;;2.30;;
51020;SDS011;38907;45.562;8.856;2022-08-01T05:58:55;4.10;;;2.58;;
51020;SDS011;38907;45.562;8.856;2022-08-01T06:03:57;7.93;;;2.58;;
51020;SDS011;38907;45.562;8.856;2022-08-01T06:09:01;6.20;;;2.35;;
51020;SDS011;38907;45.562;8.856;2022-08-01T06:14:04;2.95;;;2.13;;
51020;SDS011;38907;45.562;8.856;2022-08-01T06:19:07;5.45;;;2.70;;
51020;SDS011;38907;45.562;8.856;2022-08-01T06:24:11;3.30;;;2.50;;
51020;SDS011;38907;45.562;8.856;2022-08-01T06:29:14;6.13;;;2.47;;
51020;SDS011;38907;45.562;8.856;2022-08-01T06:34:17;5.55;;;2.75;;
51020;SDS011;38907;45.562;8.856;2022-08-01T06:39:21;4.35;;;2.15;;
51020;SDS011;38907;45.562;8.856;2022-08-01T06:44:23;2.88;;;2.38;;
51020;SDS011;38907;45.562;8.856;2022-08-01T06:49:26;4.75;;;2.28;;
51020;SDS011;38907;45.562;8.856;2022-08-01T06:54:30;2.90;;;1.95;;
51020;SDS011;38907;45.562;8.856;2022-08-01T06:59:33;2.88;;;1.67;;
51020;SDS011;38907;45.562;8.856;2022-08-01T07:04:36;2.25;;;1.92;;
51020;SDS011;38907;45.562;8.856;2022-08-01T07:09:40;7.40;;;2.00;;
51020;SDS011;38907;45.562;8.856;2022-08-01T07:14:42;2.58;;;1.75;;
51020;SDS011;38907;45.562;8.856;2022-08-01T07:19:45;9.43;;;2.80;;
51020;SDS011;38907;45.562;8.856;2022-08-01T07:24:49;2.38;;;1.90;;
51020;SDS011;38907;45.562;8.856;2022-08-01T07:29:52;7.20;;;2.42;;
51020;SDS011;38907;45.562;8.856;2022-08-01T07:34:55;5.32;;;2.75;;
51020;SDS011;38907;45.562;8.856;2022-08-01T07:39:59;5.97;;;2.58;;
51020;SDS011;38907;45.562;8.856;2022-08-01T07:45:02;7.60;;;3.20;;
51020;SDS011;38907;45.562;8.856;2022-08-01T07:50:05;6.60;;;2.95;;
51020;SDS011;38907;45.562;8.856;2022-08-01T07:55:11;4.85;;;2.47;;
51020;SDS011;38907;45.562;8.856;2022-08-01T08:00:14;5.43;;;3.75;;
51020;SDS011;38907;45.562;8.856;2022-08-01T08:05:17;7.95;;;2.88;;
51020;SDS011;38907;45.562;8.856;2022-08-01T08:10:21;3.05;;;2.50;;
51020;SDS011;38907;45.562;8.856;2022-08-01T08:15:23;5.43;;;2.80;;
51020;SDS011;38907;45.562;8.856;2022-08-01T08:20:26;5.65;;;3.20;;
51020;SDS011;38907;45.562;8.856;2022-08-01T08:25:31;5.65;;;3.05;;
51020;SDS011;38907;45.562;8.856;2022-08-01T08:30:34;6.00;;;3.70;;
51020;SDS011;38907;45.562;8.856;2022-08-01T08:35:38;7.10;;;3.70;;
51020;SDS011;38907;45.562;8.856;2022-08-01T08:40:43;8.90;;;4.78;;
51020;SDS011;38907;45.562;8.856;2022-08-01T08:45:46;7.97;;;3.08;;
51020;SDS011;38907;45.562;8.856;2022-08-01T08:50:49;9.48;;;3.35;;
51020;SDS011;38907;45.562;8.856;2022-08-01T08:55:54;8.68;;;3.58;;
51020;SDS011;38907;45.562;8.856;2022-08-01T09:00:58;10.13;;;4.30;;
51020;SDS011;38907;45.562;8.856;2022-08-01T09:06:02;7.65;;;4.28;;
51020;SDS011;38907;45.562;8.856;2022-08-01T09:11:06;12.05;;;4.20;;
51020;SDS011;38907;45.562;8.856;2022-08-01T09:16:09;6.93;;;3.42;;
51020;SDS011;38907;45.562;8.856;2022-08-01T09:21:19;8.40;;;4.28;;
51020;SDS011;38907;45.562;8.856;2022-08-01T09:26:29;9.60;;;4.63;;
51020;SDS011;38907;45.562;8.856;2022-08-01T09:31:39;7.18;;;4.55;;
51020;SDS011;38907;45.562;8.856;2022-08-01T09:36:44;7.03;;;4.07;;
51020;SDS011;38907;45.562;8.856;2022-08-01T09:41:53;8.32;;;4.50;;
51020;SDS011;38907;45.562;8.856;2022-08-01T09:46:56;12.00;;;4.32;;
51020;SDS011;38907;45.562;8.856;2022-08-01T09:52:00;10.05;;;4.20;;
51020;SDS011;38907;45.562;8.856;2022-08-01T09:57:15;7.00;;;4.32;;
51020;SDS011;38907;45.562;8.856;2022-08-01T10:02:30;6.28;;;3.58;;
51020;SDS011;38907;45.562;8.856;2022-08-01T10:07:33;4.88;;;3.70;;
51020;SDS011;38907;45.562;8.856;2022-08-01T10:12:38;5.32;;;3.50;;
51020;SDS011;38907;45.562;8.856;2022-08-01T10:17:43;6.57;;;3.75;;
51020;SDS011;38907;45.562;8.856;2022-08-01T10:22:54;9.20;;;3.50;;
51020;SDS011;38907;45.562;8.856;2022-08-01T10:28:03;6.43;;;2.85;;
51020;SDS011;38907;45.562;8.856;2022-08-01T10:33:11;4.32;;;3.00;;
51020;SDS011;38907;45.562;8.856;2022-08-01T10:38:15;9.73;;;3.05;;
51020;SDS011;38907;45.562;8.856;2022-08-01T10:43:19;6.40;;;2.50;;
51020;SDS011;38907;45.562;8.856;2022-08-01T10:48:24;7.88;;;3.05;;
51020;SDS011;38907;45.562;8.856;2022-08-01T10:53:32;9.27;;;3.80;;
51020;SDS011;38907;45.562;8.856;2022-08-01T10:58:37;5.70;;;3.28;;
51020;SDS011;38907;45.562;8.856;2022-08-01T11:03:41;5.05;;;3.45;;
51020;SDS011;38907;45.562;8.856;2022-08-01T11:08:50;3.95;;;2.60;;
51020;SDS011;38907;45.562;8.856;2022-08-01T11:14:05;3.33;;;2.72;;
51020;SDS011;38907;45.562;8.856;2022-08-01T11:19:10;2.40;;;2.10;;
51020;SDS011;38907;45.562;8.856;2022-08-01T11:24:13;3.80;;;2.45;;
51020;SDS011;38907;45.562;8.856;2022-08-01T11:29:18;3.30;;;2.30;;
51020;SDS011;38907;45.562;8.856;2022-08-01T11:34:24;3.05;;;2.60;;
51020;SDS011;38907;45.562;8.856;2022-08-01T11:40:15;7.82;;;2.78;;
51020;SDS011;38907;45.562;8.856;2022-08-01T11:45:20;3.85;;;2.30;;
51020;SDS011;38907;45.562;8.856;2022-08-01T11:50:30;3.40;;;2.10;;
51020;SDS011;38907;45.562;8.856;2022-08-01T11:55:34;3.70;;;2.08;;
51020;SDS011;38907;45.562;8.856;2022-08-01T12:00:38;2.67;;;2.00;;
51020;SDS011;38907;45.562;8.856;2022-08-01T12:05:43;3.05;;;2.10;;
51020;SDS011;38907;45.562;8.856;2022-08-01T12:10:49;3.85;;;1.75;;
51020;SDS011;38907;45.562;8.856;2022-08-01T12:15:53;2.72;;;1.80;;
51020;SDS011;38907;45.562;8.856;2022-08-01T12:20:59;3.13;;;1.60;;
51020;SDS011;38907;45.562;8.856;2022-08-01T12:26:05;2.05;;;1.67;;
51020;SDS011;38907;45.562;8.856;2022-08-01T12:31:09;2.90;;;1.85;;
51020;SDS011;38907;45.562;8.856;2022-08-01T12:36:12;3.15;;;1.58;;
51020;SDS011;38907;45.562;8.856;2022-08-01T12:41:14;2.03;;;1.17;;
51020;SDS011;38907;45.562;8.856;2022-08-01T12:46:19;3.67;;;1.50;;
51020;SDS011;38907;45.562;8.856;2022-08-01T12:51:26;3.35;;;1.67;;
51020;SDS011;38907;45.562;8.856;2022-08-01T12:56:32;1.77;;;1.20;;
51020;SDS011;38907;45.562;8.856;2022-08-01T13:01:36;1.55;;;1.20;;
51020;SDS011;38907;45.562;8.856;2022-08-01T13:06:40;8.02;;;2.63;;
51020;SDS011;38907;45.562;8.856;2022-08-01T13:11:43;5.10;;;1.40;;
51020;SDS011;38907;45.562;8.856;2022-08-01T13:16:47;2.42;;;1.40;;
51020;SDS011;38907;45.562;8.856;2022-08-01T13:21:53;2.97;;;1.52;;
51020;SDS011;38907;45.562;8.856;2022-08-01T13:26:58;2.35;;;1.30;;
51020;SDS011;38907;45.562;8.856;2022-08-01T13:32:13;1.98;;;1.08;;
51020;SDS011;38907;45.562;8.856;2022-08-01T13:37:16;2.58;;;1.10;;
51020;SDS011;38907;45.562;8.856;2022-08-01T13:42:19;4.30;;;1.50;;
51020;SDS011;38907;45.562;8.856;2022-08-01T13:47:23;1.58;;;1.20;;
51020;SDS011;38907;45.562;8.856;2022-08-01T13:52:25;1.45;;;1.30;;
51020;SDS011;38907;45.562;8.856;2022-08-01T13:57:28;6.50;;;1.42;;
51020;SDS011;38907;45.562;8.856;2022-08-01T14:02:33;4.45;;;1.08;;
51020;SDS011;38907;45.562;8.856;2022-08-01T14:07:35;2.60;;;1.10;;
51020;SDS011;38907;45.562;8.856;2022-08-01T14:12:38;2.03;;;1.50;;
51020;SDS011;38907;45.562;8.856;2022-08-01T14:17:42;3.90;;;1.60;;
51020;SDS011;38907;45.562;8.856;2022-08-01T14:22:45;2.58;;;1.42;;
51020;SDS011;38907;45.562;8.856;2022-08-01T14:27:47;3.55;;;1.45;;
51020;SDS011;38907;45.562;8.856;2022-08-01T14:32:51;1.67;;;1.50;;
51020;SDS011;38907;45.562;8.856;2022-08-01T14:37:54;1.58;;;1.23;;
51020;SDS011;38907;45.562;8.856;2022-08-01T14:42:57;2.10;;;1.10;;
51020;SDS011;38907;45.562;8.856;2022-08-01T14:48:02;1.48;;;1.13;;
51020;SDS011;38907;45.562;8.856;2022-08-01T14:53:06;1.92;;;0.90;;
51020;SDS011;38907;45.562;8.856;2022-08-01T14:58:08;1.65;;;0.90;;
51020;SDS011;38907;45.562;8.856;2022-08-01T15:03:13;1.00;;;0.82;;
51020;SDS011;38907;45.562;8.856;2022-08-01T15:08:15;1.55;;;1.00;;
51020;SDS011;38907;45.562;8.856;2022-08-01T15:13:18;1.45;;;0.90;;
51020;SDS011;38907;45.562;8.856;2022-08-01T15:18:22;1.08;;;0.70;;
51020;SDS011;38907;45.562;8.856;2022-08-01T15:23:25;2.45;;;0.90;;
51020;SDS011;38907;45.562;8.856;2022-08-01T15:28:28;3.72;;;0.85;;
51020;SDS011;38907;45.562;8.856;2022-08-01T15:33:33;2.13;;;1.00;;
51020;SDS011;38907;45.562;8.856;2022-08-01T15:38:35;1.20;;;1.00;;
51020;SDS011;38907;45.562;8.856;2022-08-01T15:43:41;2.65;;;0.90;;
51020;SDS011;38907;45.562;8.856;2022-08-01T15:48:46;4.20;;;0.90;;
51020;SDS011;38907;45.562;8.856;2022-08-01T15:53:48;1.25;;;0.70;;
51020;SDS011;38907;45.562;8.856;2022-08-01T15:58:51;2.38;;;0.80;;
51020;SDS011;38907;45.562;8.856;2022-08-01T16:03:55;2.70;;;1.00;;
51020;SDS011;38907;45.562;8.856;2022-08-01T16:08:59;1.48;;;1.00;;
51020;SDS011;38907;45.562;8.856;2022-08-01T16:14:02;1.20;;;0.82;;
51020;SDS011;38907;45.562;8.856;2022-08-01T16:19:07;1.15;;;0.85;;
51020;SDS011;38907;45.562;8.856;2022-08-01T16:24:10;2.70;;;0.95;;
51020;SDS011;38907;45.562;8.856;2022-08-01T16:29:12;2.03;;;1.33;;
51020;SDS011;38907;45.562;8.856;2022-08-01T16:34:16;1.20;;;0.90;;
51020;SDS011;38907;45.562;8.856;2022-08-01T16:39:20;1.17;;;0.82;;
51020;SDS011;38907;45.562;8.856;2022-08-01T16:44:23;6.07;;;1.08;;
51020;SDS011;38907;45.562;8.856;2022-08-01T16:49:27;2.35;;;1.10;;
51020;SDS011;38907;45.562;8.856;2022-08-01T16:54:31;1.08;;;0.98;;
51020;SDS011;38907;45.562;8.856;2022-08-01T16:59:33;2.30;;;1.10;;
51020;SDS011;38907;45.562;8.856;2022-08-01T17:04:39;4.00;;;1.10;;
51020;SDS011;38907;45.562;8.856;2022-08-01T17:09:42;1.45;;;0.85;;
51020;SDS011;38907;45.562;8.856;2022-08-01T17:14:45;2.88;;;1.20;;
51020;SDS011;38907;45.562;8.856;2022-08-01T17:19:49;1.00;;;0.90;;
51020;SDS011;38907;45.562;8.856;2022-08-01T17:24:52;1.13;;;0.88;;
51020;SDS011;38907;45.562;8.856;2022-08-01T17:29:55;1.30;;;1.05;;
51020;SDS011;38907;45.562;8.856;2022-08-01T17:34:59;1.27;;;1.00;;
51020;SDS011;38907;45.562;8.856;2022-08-01T17:40:02;1.80;;;1.10;;
51020;SDS011;38907;45.562;8.856;2022-08-01T17:45:06;5.80;;;0.80;;
51020;SDS011;38907;45.562;8.856;2022-08-01T17:50:14;4.55;;;1.08;;
51020;SDS011;38907;45.562;8.856;2022-08-01T17:55:17;3.88;;;0.80;;
51020;SDS011;38907;45.562;8.856;2022-08-01T18:00:20;3.28;;;1.10;;
51020;SDS011;38907;45.562;8.856;2022-08-01T18:05:24;2.58;;;1.00;;
51020;SDS011;38907;45.562;8.856;2022-08-01T18:10:27;5.85;;;1.23;;
51020;SDS011;38907;45.562;8.856;2022-08-01T18:15:30;6.63;;;0.98;;
51020;SDS011;38907;45.562;8.856;2022-08-01T18:20:34;3.13;;;1.10;;
51020;SDS011;38907;45.562;8.856;2022-08-01T18:25:38;1.25;;;0.88;;
51020;SDS011;38907;45.562;8.856;2022-08-01T18:30:41;1.55;;;0.90;;
51020;SDS011;38907;45.562;8.856;2022-08-01T18:35:45;2.58;;;1.10;;
51020;SDS011;38907;45.562;8.856;2022-08-01T18:40:48;0.85;;;0.77;;
51020;SDS011;38907;45.562;8.856;2022-08-01T18:45:51;4.75;;;1.50;;
51020;SDS011;38907;45.562;8.856;2022-08-01T18:50:57;3.30;;;1.10;;
51020;SDS011;38907;45.562;8.856;2022-08-01T18:56:01;2.42;;;1.08;;
51020;SDS011;38907;45.562;8.856;2022-08-01T19:01:10;1.73;;;1.00;;
51020;SDS011;38907;45.562;8.856;2022-08-01T19:06:15;2.80;;;1.10;;
51020;SDS011;38907;45.562;8.856;2022-08-01T19:11:18;2.05;;;1.20;;
51020;SDS011;38907;45.562;8.856;2022-08-01T19:16:21;1.77;;;1.27;;
51020;SDS011;38907;45.562;8.856;2022-08-01T19:21:25;2.30;;;1.63;;
51020;SDS011;38907;45.562;8.856;2022-08-01T19:26:28;2.90;;;1.40;;
51020;SDS011;38907;45.562;8.856;2022-08-01T19:31:36;7.80;;;1.63;;
51020;SDS011;38907;45.562;8.856;2022-08-01T19:36:43;4.43;;;1.25;;
51020;SDS011;38907;45.562;8.856;2022-08-01T19:41:48;4.93;;;1.55;;
51020;SDS011;38907;45.562;8.856;2022-08-01T19:46:52;2.45;;;1.20;;
51020;SDS011;38907;45.562;8.856;2022-08-01T19:51:58;8.70;;;1.50;;
51020;SDS011;38907;45.562;8.856;2022-08-01T19:57:03;2.90;;;1.75;;
51020;SDS011;38907;45.562;8.856;2022-08-01T20:02:07;2.05;;;1.40;;
51020;SDS011;38907;45.562;8.856;2022-08-01T20:07:13;3.92;;;1.58;;
51020;SDS011;38907;45.562;8.856;2022-08-01T20:12:18;6.47;;;1.75;;
51020;SDS011;38907;45.562;8.856;2022-08-01T20:17:22;5.10;;;1.50;;
51020;SDS011;38907;45.562;8.856;2022-08-01T20:22:26;6.93;;;1.50;;
51020;SDS011;38907;45.562;8.856;2022-08-01T20:27:33;2.90;;;1.42;;
51020;SDS011;38907;45.562;8.856;2022-08-01T20:32:38;4.55;;;1.92;;
51020;SDS011;38907;45.562;8.856;2022-08-01T20:37:43;4.00;;;1.50;;
51020;SDS011;38907;45.562;8.856;2022-08-01T20:42:48;1.30;;;1.20;;
51020;SDS011;38907;45.562;8.856;2022-08-01T20:47:52;4.05;;;1.30;;
51020;SDS011;38907;45.562;8.856;2022-08-01T20:53:00;3.20;;;1.42;;
51020;SDS011;38907;45.562;8.856;2022-08-01T20:58:02;3.95;;;1.20;;
51020;SDS011;38907;45.562;8.856;2022-08-01T21:03:07;2.22;;;1.35;;
51020;SDS011;38907;45.562;8.856;2022-08-01T21:08:19;4.20;;;1.90;;
51020;SDS011;38907;45.562;8.856;2022-08-01T21:13:26;6.88;;;1.38;;
51020;SDS011;38907;45.562;8.856;2022-08-01T21:18:35;7.03;;;1.52;;
51020;SDS011;38907;45.562;8.856;2022-08-01T21:23:42;1.98;;;1.10;;
51020;SDS011;38907;45.562;8.856;2022-08-01T21:28:48;5.72;;;1.60;;
51020;SDS011;38907;45.562;8.856;2022-08-01T21:33:51;2.38;;;1.17;;
51020;SDS011;38907;45.562;8.856;2022-08-01T21:38:58;5.13;;;1.30;;
51020;SDS011;38907;45.562;8.856;2022-08-01T21:44:02;3.97;;;1.30;;
51020;SDS011;38907;45.562;8.856;2022-08-01T21:49:05;2.15;;;1.13;;
51020;SDS011;38907;45.562;8.856;2022-08-01T21:54:11;1.20;;;1.10;;
51020;SDS011;38907;45.562;8.856;2022-08-01T21:59:27;5.00;;;2.20;;
51020;SDS011;38907;45.562;8.856;2022-08-01T22:04:40;4.05;;;1.77;;
51020;SDS011;38907;45.562;8.856;2022-08-01T22:09:48;7.35;;;1.95;;
51020;SDS011;38907;45.562;8.856;2022-08-01T22:14:52;5.18;;;2.03;;
51020;SDS011;38907;45.562;8.856;2022-08-01T22:19:56;1.95;;;1.58;;
51020;SDS011;38907;45.562;8.856;2022-08-01T22:25:01;3.65;;;1.50;;
51020;SDS011;38907;45.562;8.856;2022-08-01T22:30:05;2.22;;;1.55;;
51020;SDS011;38907;45.562;8.856;2022-08-01T22:35:09;2.42;;;1.60;;
51020;SDS011;38907;45.562;8.856;2022-08-01T22:40:15;2.08;;;1.20;;
51020;SDS011;38907;45.562;8.856;2022-08-01T22:45:21;3.30;;;1.60;;
51020;SDS011;38907;45.562;8.856;2022-08-01T22:50:28;2.10;;;1.45;;
51020;SDS011;38907;45.562;8.856;2022-08-01T22:55:36;3.08;;;1.70;;
51020;SDS011;38907;45.562;8.856;2022-08-01T23:00:43;2.45;;;1.70;;
51020;SDS011;38907;45.562;8.856;2022-08-01T23:05:48;2.70;;;1.90;;
51020;SDS011;38907;45.562;8.856;2022-08-01T23:11:05;3.00;;;1.42;;
51020;SDS011;38907;45.562;8.856;2022-08-01T23:16:08;1.75;;;1.50;;
51020;SDS011;38907;45.562;8.856;2022-08-01T23:21:11;3.60;;;1.85;;
51020;SDS011;38907;45.562;8.856;2022-08-01T23:26:18;2.78;;;1.40;;
51020;SDS011;38907;45.562;8.856;2022-08-01T23:31:22;3.85;;;1.25;;
51020;SDS011;38907;45.562;8.856;2022-08-01T23:36:27;3.05;;;1.70;;
51020;SDS011;38907;45.562;8.856;2022-08-01T23:41:31;3.45;;;1.60;;
51020;SDS011;38907;45.562;8.856;2022-08-01T23:46:33;1.90;;;1.75;;
51020;SDS011;38907;45.562;8.856;2022-08-01T23:51:36;3.13;;;1.50;;
51020;SDS011;38907;45.562;8.856;2022-08-01T23:56:41;4.50;;;1.83;;
